createdAt,value
2023-05-31T00:00:31.018Z,100.00
2023-05-31T00:05:32.468Z,100.00
2023-05-31T00:10:33.967Z,100.00
2023-05-31T00:15:35.428Z,100.00
2023-05-31T00:20:37.201Z,100.00
2023-05-31T00:25:39.631Z,100.00
2023-05-31T00:30:41.473Z,100.00
2023-05-31T00:35:42.953Z,100.00
2023-05-31T00:40:45.715Z,100.00
2023-05-31T00:45:47.180Z,100.00
2023-05-31T00:50:50.333Z,100.00
2023-05-31T00:55:53.215Z,100.00
2023-05-31T01:00:55.930Z,100.00
2023-05-31T01:05:57.393Z,100.00
2023-05-31T01:11:07.989Z,100.00
2023-05-31T01:16:27.309Z,100.00
2023-05-31T01:21:52.628Z,100.00
2023-05-31T01:26:56.092Z,100.00
2023-05-31T01:31:59.394Z,100.00
2023-05-31T01:37:00.913Z,100.00
2023-05-31T01:42:03.844Z,100.00
2023-05-31T01:47:08.750Z,100.00
2023-05-31T01:52:14.822Z,100.00
2023-05-31T01:57:18.233Z,100.00
2023-05-31T02:02:20.939Z,100.00
2023-05-31T02:07:22.489Z,100.00
2023-05-31T02:12:24.028Z,100.00
2023-05-31T02:17:25.578Z,100.00
2023-05-31T02:22:27.066Z,100.00
2023-05-31T02:27:30.281Z,100.00
2023-05-31T02:32:35.282Z,100.00
2023-05-31T02:37:39.035Z,100.00
2023-05-31T02:42:42.021Z,100.00
2023-05-31T02:47:43.621Z,100.00
2023-05-31T02:52:45.162Z,100.00
2023-05-31T02:58:07.026Z,100.00
2023-05-31T03:03:11.009Z,100.00
2023-05-31T03:08:31.646Z,100.00
2023-05-31T03:13:33.729Z,100.00
2023-05-31T03:18:35.557Z,100.00
2023-05-31T03:23:37.957Z,100.00
2023-05-31T03:28:39.518Z,100.00
2023-05-31T03:33:41.059Z,100.00
2023-05-31T03:38:42.679Z,100.00
2023-05-31T03:43:44.355Z,100.00
2023-05-31T03:48:47.179Z,100.00
2023-05-31T03:53:48.710Z,100.00
2023-05-31T03:58:50.259Z,100.00
2023-05-31T04:03:52.393Z,100.00
2023-05-31T04:08:53.983Z,100.00
2023-05-31T04:13:55.545Z,100.00
2023-05-31T04:18:58.887Z,100.00
2023-05-31T04:24:00.490Z,100.00
2023-05-31T04:29:02.248Z,100.00
2023-05-31T04:34:04.736Z,100.00
2023-05-31T04:39:10.098Z,100.00
2023-05-31T04:44:12.640Z,100.00
2023-05-31T04:49:14.126Z,100.00
2023-05-31T04:54:15.758Z,100.00
2023-05-31T04:59:17.281Z,100.00
2023-05-31T05:04:19.816Z,100.00
2023-05-31T05:09:23.797Z,100.00
2023-05-31T05:14:25.823Z,100.00
2023-05-31T05:19:27.456Z,100.00
2023-05-31T05:24:28.983Z,100.00
2023-05-31T05:29:30.681Z,100.00
2023-05-31T05:34:32.191Z,100.00
2023-05-31T05:39:33.959Z,100.00
2023-05-31T05:44:35.537Z,100.00
2023-05-31T05:49:38.353Z,100.00
2023-05-31T05:54:42.079Z,100.00
2023-05-31T05:59:44.726Z,100.00
2023-05-31T06:04:56.793Z,100.00
2023-05-31T06:09:58.365Z,95.34
2023-05-31T06:15:00.023Z,84.34
2023-05-31T06:20:02.640Z,70.77
2023-05-31T06:25:04.568Z,74.00
2023-05-31T06:30:08.803Z,90.09
2023-05-31T06:35:16.519Z,85.64
2023-05-31T06:40:19.481Z,78.54
2023-05-31T06:45:21.057Z,67.05
2023-05-31T06:50:25.168Z,60.69
2023-05-31T06:55:27.103Z,59.18
2023-05-31T07:00:29.281Z,56.06
2023-05-31T07:05:30.864Z,55.59
2023-05-31T07:10:33.640Z,54.60
2023-05-31T07:15:35.394Z,56.45
2023-05-31T07:20:37.006Z,54.35
2023-05-31T07:25:38.540Z,52.34
2023-05-31T07:30:40.019Z,51.66
2023-05-31T07:35:43.066Z,49.19
2023-05-31T07:40:44.545Z,50.30
2023-05-31T07:45:46.067Z,50.10
2023-05-31T07:50:48.164Z,52.33
2023-05-31T07:55:49.665Z,55.80
2023-05-31T08:00:51.107Z,53.93
2023-05-31T08:05:53.988Z,54.06
2023-05-31T08:10:55.667Z,54.10
2023-05-31T08:15:57.163Z,55.47
2023-05-31T08:20:58.812Z,61.80
2023-05-31T08:26:00.489Z,63.07
2023-05-31T08:31:02.018Z,61.72
2023-05-31T08:36:03.537Z,53.05
2023-05-31T08:41:05.547Z,55.11
2023-05-31T08:46:08.947Z,52.31
2023-05-31T08:51:12.847Z,49.44
2023-05-31T08:56:14.971Z,49.14
2023-05-31T09:01:21.230Z,47.89
2023-05-31T09:06:22.934Z,49.64
2023-05-31T09:11:24.483Z,49.77
2023-05-31T09:16:26.189Z,49.18
2023-05-31T09:21:27.800Z,49.60
2023-05-31T09:26:29.343Z,51.80
2023-05-31T09:31:31.313Z,51.24
2023-05-31T09:36:33.065Z,50.84
2023-05-31T09:41:35.096Z,48.64
2023-05-31T09:46:38.016Z,48.72
2023-05-31T09:51:40.304Z,48.06
2023-05-31T09:56:42.161Z,46.42
2023-05-31T10:01:44.621Z,46.02
2023-05-31T10:06:47.230Z,45.91
2023-05-31T10:11:52.040Z,44.17
2023-05-31T10:16:55.882Z,47.18
2023-05-31T10:21:59.699Z,48.95
2023-05-31T10:27:12.668Z,48.36
2023-05-31T10:32:21.830Z,48.78
2023-05-31T10:37:23.980Z,52.14
2023-05-31T10:42:47.336Z,53.73
2023-05-31T10:48:13.584Z,54.71
2023-05-31T10:53:15.165Z,57.08
2023-05-31T10:58:39.292Z,56.01
2023-05-31T11:03:54.147Z,54.45
2023-05-31T11:09:25.273Z,49.90
2023-05-31T11:14:28.750Z,51.86
2023-05-31T11:19:32.232Z,52.55
2023-05-31T11:24:40.643Z,54.08
2023-05-31T11:29:44.823Z,51.57
2023-05-31T11:34:53.521Z,50.74
2023-05-31T11:39:58.546Z,54.01
2023-05-31T11:45:18.210Z,62.84
2023-05-31T11:50:20.343Z,63.86
2023-05-31T11:55:22.118Z,63.80
2023-05-31T12:00:23.591Z,61.51
2023-05-31T12:05:25.356Z,64.01
2023-05-31T12:10:32.118Z,58.94
2023-05-31T12:15:33.609Z,58.34
2023-05-31T12:20:35.309Z,61.10
2023-05-31T12:25:36.781Z,59.52
2023-05-31T12:30:48.729Z,62.65
2023-05-31T12:35:50.457Z,59.99
2023-05-31T12:40:53.704Z,55.74
2023-05-31T12:45:55.333Z,54.05
2023-05-31T12:50:58.335Z,51.87
2023-05-31T12:55:59.813Z,51.93
2023-05-31T13:01:01.505Z,51.93
2023-05-31T13:06:03.629Z,53.54
2023-05-31T13:11:05.151Z,52.99
2023-05-31T13:16:06.805Z,50.95
2023-05-31T13:21:08.323Z,50.42
2023-05-31T13:26:10.021Z,49.32
2023-05-31T13:31:11.726Z,47.96
2023-05-31T13:36:13.661Z,47.31
2023-05-31T13:41:15.101Z,47.66
2023-05-31T13:46:16.670Z,47.29
2023-05-31T13:51:18.312Z,49.26
2023-05-31T13:56:19.778Z,49.05
2023-05-31T14:01:21.266Z,48.47
2023-05-31T14:06:22.760Z,49.78
2023-05-31T14:11:24.225Z,50.01
2023-05-31T14:16:25.719Z,51.07
2023-05-31T14:21:27.313Z,53.74
2023-05-31T14:26:28.877Z,54.75
2023-05-31T14:31:30.553Z,59.18
2023-05-31T14:36:32.052Z,62.45
2023-05-31T14:41:33.820Z,67.15
2023-05-31T14:46:35.374Z,67.38
2023-05-31T14:51:36.858Z,65.32
2023-05-31T14:56:38.328Z,67.51
2023-05-31T15:01:40.338Z,70.90
2023-05-31T15:06:43.164Z,70.61
2023-05-31T15:11:44.628Z,74.06
2023-05-31T15:16:46.101Z,78.72
2023-05-31T15:21:47.640Z,75.54
2023-05-31T15:26:49.883Z,75.87
2023-05-31T15:31:52.763Z,78.56
2023-05-31T15:36:54.290Z,82.03
2023-05-31T15:41:55.762Z,84.45
2023-05-31T15:46:57.283Z,87.06
2023-05-31T15:51:58.816Z,87.49
2023-05-31T15:57:00.298Z,89.44
2023-05-31T16:02:02.091Z,91.51
2023-05-31T16:07:03.624Z,93.42
2023-05-31T16:12:05.749Z,95.15
2023-05-31T16:17:07.351Z,93.92
2023-05-31T16:22:08.947Z,94.85
2023-05-31T16:27:10.518Z,94.37
2023-05-31T16:32:11.998Z,96.58
2023-05-31T16:37:13.460Z,98.62
2023-05-31T16:42:15.002Z,99.37
2023-05-31T16:47:16.548Z,98.29
2023-05-31T16:52:18.012Z,97.55
2023-05-31T16:57:19.476Z,98.71
2023-05-31T17:02:20.952Z,97.22
2023-05-31T17:07:22.564Z,100.00
2023-05-31T17:12:24.577Z,100.00
2023-05-31T17:17:26.328Z,100.00
2023-05-31T17:22:27.799Z,100.00
2023-05-31T17:27:29.247Z,100.00
2023-05-31T17:32:30.730Z,100.00
2023-05-31T17:37:32.216Z,100.00
2023-05-31T17:42:33.663Z,100.00
2023-05-31T17:47:35.156Z,100.00
2023-05-31T17:52:36.994Z,100.00
2023-05-31T17:57:38.513Z,100.00
2023-05-31T18:02:40.093Z,100.00
2023-05-31T18:07:41.625Z,100.00
2023-05-31T18:12:44.462Z,100.00
2023-05-31T18:17:47.817Z,100.00
2023-05-31T18:22:49.421Z,100.00
2023-05-31T18:27:50.877Z,100.00
2023-05-31T18:32:52.388Z,100.00
2023-05-31T18:37:53.938Z,100.00
2023-05-31T18:42:55.381Z,100.00
2023-05-31T18:47:56.921Z,100.00
2023-05-31T18:52:58.445Z,100.00
2023-05-31T18:57:59.912Z,100.00
2023-05-31T19:03:01.452Z,100.00
2023-05-31T19:08:02.982Z,100.00
2023-05-31T19:13:04.511Z,100.00
2023-05-31T19:18:17.706Z,100.00
2023-05-31T19:23:20.996Z,100.00
2023-05-31T19:28:22.617Z,100.00
2023-05-31T19:33:24.162Z,100.00
2023-05-31T19:38:25.612Z,100.00
2023-05-31T19:43:27.226Z,100.00
2023-05-31T19:48:28.756Z,100.00
2023-05-31T19:53:30.237Z,100.00
2023-05-31T19:58:31.757Z,100.00
2023-05-31T20:03:33.391Z,100.00
2023-05-31T20:08:35.129Z,100.00
2023-05-31T20:13:36.636Z,100.00
2023-05-31T20:18:38.118Z,100.00
2023-05-31T20:23:39.585Z,100.00
2023-05-31T20:28:41.163Z,100.00
2023-05-31T20:33:43.273Z,100.00
2023-05-31T20:38:44.799Z,100.00
2023-05-31T20:43:46.270Z,100.00
2023-05-31T20:48:47.749Z,100.00
2023-05-31T20:53:49.790Z,100.00
2023-05-31T20:58:51.592Z,100.00
2023-05-31T21:03:53.756Z,100.00
2023-05-31T21:08:55.417Z,100.00
2023-05-31T21:13:56.943Z,100.00
2023-05-31T21:18:58.428Z,100.00
2023-05-31T21:24:00.210Z,100.00
2023-05-31T21:29:01.736Z,100.00
2023-05-31T21:34:03.241Z,100.00
2023-05-31T21:39:04.763Z,100.00
2023-05-31T21:44:06.251Z,100.00
2023-05-31T21:49:07.941Z,100.00
2023-05-31T21:54:09.426Z,100.00
2023-05-31T21:59:10.953Z,100.00
2023-05-31T22:04:12.658Z,100.00
2023-05-31T22:09:14.231Z,100.00
2023-05-31T22:14:16.041Z,100.00
2023-05-31T22:19:18.339Z,100.00
2023-05-31T22:24:20.466Z,100.00
2023-05-31T22:29:22.149Z,100.00
2023-05-31T22:34:23.707Z,100.00
2023-05-31T22:39:25.170Z,100.00
2023-05-31T22:44:26.628Z,100.00
2023-05-31T22:49:28.100Z,100.00
2023-05-31T22:54:29.566Z,100.00
2023-05-31T22:59:31.135Z,100.00
2023-05-31T23:04:32.604Z,100.00
2023-05-31T23:09:34.060Z,100.00
2023-05-31T23:14:35.511Z,100.00
2023-05-31T23:19:37.022Z,100.00
2023-05-31T23:24:38.480Z,100.00
2023-05-31T23:29:39.952Z,100.00
2023-05-31T23:34:41.479Z,100.00
2023-05-31T23:39:42.946Z,100.00
2023-05-31T23:44:44.475Z,100.00
2023-05-31T23:49:45.931Z,100.00
2023-05-31T23:54:47.468Z,100.00
2023-05-31T23:59:49.062Z,100.00
